首页
METAR-TAF:

METAR-TAF

机场 :

哈尔滨, 中华人民共和国

哈尔滨太平国际机场

纬度: 45-45N, 经度: 126-46E, 海拔: 143米

当前天气观测

该预报发布于23分钟前的22:00 UTC
风速14节,风向西转西南
温度 14°C
湿度 31%
气压 1001 hPa
能见度10公里或以上
1500米以下无云,无积雨云

METAR: ZYHB 252200Z 24007MPS CAVOK 14/M03 Q1001 BECMG TL2330 34008MPS

时间: 06:23 (22:23 UTC)

预报

该预报发布于8小时和50分钟前的13:33 UTC
预报有效从25日的 18点(UTC)到 26日的 18点(UTC)
风速12节,风向西转西南,有时为25节阵风
能見度: 6000
少量云层高于3000英尺
成为
从 25日的 21点(UTC)到 25日的 23点(UTC)
风速17节,风向北转西北,有时为31节阵风

TAF: ZYHB 251333Z 2518/2618 24006G13MPS 6000 FEW030 TX15/2519Z TN05/2518Z BECMG 2521/2523 34009G16MPS

超过4000个机场的气象观测和天气预报(METAR&TAF报告)。

可查询的气象台以黄色和红色小点在地图上表示。

将鼠标移到小点上方,可查看气象台名称。

然后点击查看天气观测和预报。

如需切换地图:点击带黑十字的绿色按钮放大地图;点击带横线的绿色按钮缩小地图;或者点击绿色箭头查看邻近地区的地图。


METAR-TAF: